Time;durP1;ratioP1;P1;durP2;ratioP2;P2;SDS_P1;SDS_P2;PMS_P1;PMS_P2;Temp;Humidity;BMP_temperature;BMP_pressure;BME280_temperature;BME280_humidity;BME280_pressure;Samples;Min_cycle;Max_cycle;Signal;HPM_P1;HPM_P2
2023/05/03 00:00:39;;;;;;;4.22;1.30;;;;;;;;;;4972561;28;88313;-80
2023/05/03 00:03:06;;;;;;;4.55;1.33;;;;;;;;;;4963613;28;91457;-80
2023/05/03 00:05:32;;;;;;;2.65;1.17;;;;;;;;;;4954268;28;93146;-80
2023/05/03 00:07:59;;;;;;;2.63;1.17;;;;;;;;;;4970608;28;91693;-80
2023/05/03 00:10:26;;;;;;;1.95;1.10;;;;;;;;;;4968974;28;93087;-79
2023/05/03 00:12:54;;;;;;;2.58;1.17;;;;;;;;;;4968124;28;93787;-80
2023/05/03 00:15:20;;;;;;;2.83;1.05;;;;;;;;;;4966421;28;95211;-80
2023/05/03 00:17:47;;;;;;;2.45;1.00;;;;;;;;;;4969986;28;95064;-78
2023/05/03 00:20:14;;;;;;;2.63;1.10;;;;;;;;;;4972842;28;92766;-79
2023/05/03 00:22:40;;;;;;;2.10;1.00;;;;;;;;;;4969049;28;92805;-79
2023/05/03 00:25:07;;;;;;;3.03;1.20;;;;;;;;;;4969685;28;93106;-79
2023/05/03 00:27:35;;;;;;;3.83;1.27;;;;;;;;;;4961659;28;92914;-79
2023/05/03 00:30:01;;;;;;;2.83;1.30;;;;;;;;;;4969329;28;92756;-80
2023/05/03 00:32:28;;;;;;;4.28;1.30;;;;;;;;;;4960161;28;94479;-80
2023/05/03 00:34:56;;;;;;;3.03;1.20;;;;;;;;;;4963101;28;92813;-79
2023/05/03 00:37:25;;;;;;;3.38;1.20;;;;;;;;;;4959842;28;92950;-79
2023/05/03 00:39:52;;;;;;;2.95;1.13;;;;;;;;;;4966576;28;95404;-80
2023/05/03 00:42:18;;;;;;;2.20;1.10;;;;;;;;;;4972050;28;92528;-79
2023/05/03 00:44:45;;;;;;;3.65;1.10;;;;;;;;;;4969103;28;93218;-80
2023/05/03 00:47:11;;;;;;;3.13;1.10;;;;;;;;;;4961924;28;92628;-80
2023/05/03 00:49:38;;;;;;;1.77;1.10;;;;;;;;;;4949594;28;92719;-80
2023/05/03 00:52:05;;;;;;;3.35;1.35;;;;;;;;;;4947827;28;93131;-79
2023/05/03 00:54:33;;;;;;;3.13;1.05;;;;;;;;;;4963027;28;92472;-79
2023/05/03 00:57:00;;;;;;;2.67;1.20;;;;;;;;;;4954698;28;92704;-79
2023/05/03 00:59:27;;;;;;;2.40;1.10;;;;;;;;;;4949561;28;93481;-80
2023/05/03 01:01:54;;;;;;;4.00;1.65;;;;;;;;;;4949756;28;92752;-80
2023/05/03 01:04:21;;;;;;;4.20;1.30;;;;;;;;;;4950597;28;95411;-80
2023/05/03 01:06:54;;;;;;;4.15;1.35;;;;;;;;;;4949615;28;93180;-80
2023/05/03 01:09:24;;;;;;;3.92;1.20;;;;;;;;;;4930171;28;95321;-81
2023/05/03 01:12:03;;;;;;;2.03;1.10;;;;;;;;;;4948720;28;93427;-81
2023/05/03 01:14:40;;;;;;;1.52;1.00;;;;;;;;;;4933760;28;92439;-80
2023/05/03 01:17:08;;;;;;;4.68;1.20;;;;;;;;;;4947972;28;93879;-81
2023/05/03 01:19:37;;;;;;;1.77;1.20;;;;;;;;;;4948574;28;93113;-81
2023/05/03 01:22:37;;;;;;;2.92;1.30;;;;;;;;;;4949803;28;91753;-81
2023/05/03 01:25:08;;;;;;;2.55;1.20;;;;;;;;;;4952716;28;96688;-81
2023/05/03 01:27:35;;;;;;;2.55;1.10;;;;;;;;;;4967428;28;92424;-82
2023/05/03 01:30:05;;;;;;;2.28;1.17;;;;;;;;;;4965513;28;95249;-81
2023/05/03 01:32:50;;;;;;;2.47;1.20;;;;;;;;;;4961546;28;93138;-80
2023/05/03 01:35:29;;;;;;;3.17;1.10;;;;;;;;;;4959663;28;93148;-80
2023/05/03 01:37:56;;;;;;;2.85;1.13;;;;;;;;;;4955559;28;92790;-80
2023/05/03 01:40:24;;;;;;;3.22;1.10;;;;;;;;;;4948555;28;93255;-79
2023/05/03 01:42:53;;;;;;;3.47;1.20;;;;;;;;;;4947107;28;92835;-80
2023/05/03 01:45:20;;;;;;;8.23;1.30;;;;;;;;;;4949522;28;93069;-81
2023/05/03 01:47:47;;;;;;;5.63;1.35;;;;;;;;;;4954793;28;91772;-81
2023/05/03 01:50:13;;;;;;;5.55;1.58;;;;;;;;;;4952156;28;92677;-81
2023/05/03 01:52:40;;;;;;;5.03;1.20;;;;;;;;;;4956891;28;93521;-81
2023/05/03 01:55:07;;;;;;;4.50;1.20;;;;;;;;;;4967754;28;94815;-82
2023/05/03 01:57:33;;;;;;;4.68;1.20;;;;;;;;;;4968122;28;93868;-82
2023/05/03 01:59:59;;;;;;;4.13;1.10;;;;;;;;;;4948511;28;95456;-82
2023/05/03 02:02:26;;;;;;;2.78;1.10;;;;;;;;;;4928336;28;92813;-83
2023/05/03 02:04:53;;;;;;;4.45;1.30;;;;;;;;;;4930207;28;95906;-83
2023/05/03 02:07:20;;;;;;;3.92;1.17;;;;;;;;;;4950807;28;93089;-82
2023/05/03 02:09:46;;;;;;;3.25;1.10;;;;;;;;;;4950688;28;99686;-82
2023/05/03 02:12:14;;;;;;;2.25;1.10;;;;;;;;;;4947428;28;93095;-82
2023/05/03 02:14:41;;;;;;;4.40;1.30;;;;;;;;;;4948204;28;92542;-82
2023/05/03 02:17:10;;;;;;;5.50;1.27;;;;;;;;;;4949195;28;94210;-83
2023/05/03 02:19:37;;;;;;;3.20;1.10;;;;;;;;;;4935730;28;96022;-80
2023/05/03 02:22:05;;;;;;;3.65;1.30;;;;;;;;;;4949055;28;92683;-81
2023/05/03 02:24:35;;;;;;;3.53;1.10;;;;;;;;;;4947634;28;100151;-81
2023/05/03 02:27:03;;;;;;;2.45;1.25;;;;;;;;;;4947910;28;93061;-81
2023/05/03 02:29:30;;;;;;;2.70;1.10;;;;;;;;;;4948425;28;92519;-81
2023/05/03 02:31:58;;;;;;;4.03;1.17;;;;;;;;;;4949177;28;93832;-81
2023/05/03 02:34:25;;;;;;;2.83;1.10;;;;;;;;;;4950119;28;92971;-81
2023/05/03 02:36:52;;;;;;;3.78;1.10;;;;;;;;;;4931214;28;94418;-81
2023/05/03 02:39:19;;;;;;;1.90;1.10;;;;;;;;;;4945994;28;95713;-81
2023/05/03 02:41:46;;;;;;;2.55;1.38;;;;;;;;;;4946171;28;92774;-81
2023/05/03 02:44:12;;;;;;;1.65;1.00;;;;;;;;;;4945086;28;94946;-81
2023/05/03 02:46:40;;;;;;;2.28;1.10;;;;;;;;;;4947621;28;93287;-82
2023/05/03 02:49:08;;;;;;;2.70;1.00;;;;;;;;;;4935531;28;92832;-81
2023/05/03 02:51:35;;;;;;;3.33;1.10;;;;;;;;;;4947786;28;92863;-81
2023/05/03 02:54:01;;;;;;;2.67;1.17;;;;;;;;;;4951084;28;93035;-81
2023/05/03 02:56:28;;;;;;;3.65;1.23;;;;;;;;;;4945716;28;93218;-80
2023/05/03 02:58:54;;;;;;;1.88;1.20;;;;;;;;;;4947825;28;92934;-81
2023/05/03 03:01:21;;;;;;;1.75;1.00;;;;;;;;;;4948205;28;92485;-81
2023/05/03 03:03:48;;;;;;;2.30;1.00;;;;;;;;;;4951016;28;93122;-81
2023/05/03 03:06:15;;;;;;;4.90;1.10;;;;;;;;;;4967211;28;92979;-80
2023/05/03 03:08:41;;;;;;;3.90;1.20;;;;;;;;;;4945689;28;95888;-80
2023/05/03 03:11:08;;;;;;;3.17;1.08;;;;;;;;;;4964045;28;97175;-80
2023/05/03 03:13:38;;;;;;;3.45;1.20;;;;;;;;;;4953750;28;92984;-81
2023/05/03 03:16:06;;;;;;;2.97;1.02;;;;;;;;;;4950657;28;93092;-81
2023/05/03 03:18:33;;;;;;;2.28;1.17;;;;;;;;;;4945192;28;95367;-79
2023/05/03 03:21:01;;;;;;;3.25;1.23;;;;;;;;;;4947642;28;92491;-80
2023/05/03 03:23:29;;;;;;;4.07;1.33;;;;;;;;;;4946172;28;95655;-79
2023/05/03 03:25:57;;;;;;;3.22;1.40;;;;;;;;;;4946341;28;94718;-81
2023/05/03 03:28:24;;;;;;;;;;;;;;;;;;4942630;28;92891;-80
2023/05/03 03:30:51;;;;;;;3.45;1.20;;;;;;;;;;4943752;28;93460;-80
2023/05/03 03:33:24;;;;;;;3.42;1.30;;;;;;;;;;4944324;28;97670;-80
2023/05/03 03:35:55;;;;;;;4.05;1.20;;;;;;;;;;4948330;28;92900;-80
2023/05/03 03:38:26;;;;;;;3.42;1.30;;;;;;;;;;4944867;28;95838;-80
2023/05/03 03:40:59;;;;;;;5.30;1.38;;;;;;;;;;4945353;28;92999;-80
2023/05/03 03:43:26;;;;;;;3.15;1.10;;;;;;;;;;4944931;28;94641;-80
2023/05/03 03:45:52;;;;;;;3.78;1.30;;;;;;;;;;4947265;28;93390;-80
2023/05/03 03:48:19;;;;;;;3.00;1.13;;;;;;;;;;4944617;28;92903;-80
2023/05/03 03:50:47;;;;;;;4.00;1.33;;;;;;;;;;4946225;28;96263;-81
2023/05/03 03:53:13;;;;;;;3.03;1.20;;;;;;;;;;4939750;28;95786;-83
2023/05/03 03:55:40;;;;;;;3.58;1.20;;;;;;;;;;4945736;28;93063;-80
2023/05/03 03:58:07;;;;;;;2.33;1.10;;;;;;;;;;4958981;28;95250;-80
2023/05/03 04:00:35;;;;;;;4.22;1.20;;;;;;;;;;4964853;28;92761;-80
2023/05/03 04:03:08;;;;;;;1.92;1.00;;;;;;;;;;4957173;28;95497;-80
2023/05/03 04:05:35;;;;;;;3.55;1.10;;;;;;;;;;4958726;28;96111;-82
2023/05/03 04:08:02;;;;;;;;;;;;;;;;;;4961204;28;93332;-81
2023/05/03 04:10:30;;;;;;;2.88;1.00;;;;;;;;;;4963844;28;92577;-81
2023/05/03 04:12:57;;;;;;;4.82;1.20;;;;;;;;;;4964516;28;95496;-80
2023/05/03 04:15:24;;;;;;;6.68;1.50;;;;;;;;;;4967631;28;91690;-79
2023/05/03 04:17:52;;;;;;;4.43;1.30;;;;;;;;;;4963790;28;93345;-79
2023/05/03 04:20:18;;;;;;;3.28;1.10;;;;;;;;;;4972821;28;93044;-79
2023/05/03 04:22:47;;;;;;;2.88;1.20;;;;;;;;;;4965705;28;95180;-80
2023/05/03 04:25:16;;;;;;;4.88;1.20;;;;;;;;;;4958329;28;94446;-79
2023/05/03 04:27:48;;;;;;;2.33;1.10;;;;;;;;;;4966474;28;92883;-79
2023/05/03 04:30:16;;;;;;;;;;;;;;;;;;4963808;28;95529;-80
2023/05/03 04:32:47;;;;;;;2.90;1.15;;;;;;;;;;4946574;28;100431;-79
2023/05/03 04:35:14;;;;;;;4.80;1.10;;;;;;;;;;4947912;28;92551;-80
2023/05/03 04:37:45;;;;;;;3.83;1.27;;;;;;;;;;4947303;28;93891;-79
2023/05/03 04:40:18;;;;;;;2.22;1.20;;;;;;;;;;4947234;28;94942;-79
2023/05/03 04:42:51;;;;;;;3.47;1.10;;;;;;;;;;4962703;28;93234;-78
2023/05/03 04:45:18;;;;;;;2.97;1.10;;;;;;;;;;4966811;28;95985;-79
2023/05/03 04:47:45;;;;;;;2.70;1.20;;;;;;;;;;4957219;28;94789;-80
2023/05/03 04:50:11;;;;;;;3.95;1.23;;;;;;;;;;4966631;28;95206;-80
2023/05/03 04:52:41;;;;;;;3.10;1.20;;;;;;;;;;4965908;28;97841;-79
2023/05/03 04:55:09;;;;;;;;;;;;;;;;;;4966846;28;92548;-80
2023/05/03 04:57:36;;;;;;;2.25;1.10;;;;;;;;;;4954421;28;94530;-80
2023/05/03 05:00:09;;;;;;;2.63;1.30;;;;;;;;;;4964961;28;95325;-80
2023/05/03 05:02:38;;;;;;;4.25;1.23;;;;;;;;;;4955763;28;92559;-80
2023/05/03 05:05:06;;;;;;;1.63;1.10;;;;;;;;;;4969897;28;95629;-80
2023/05/03 05:07:33;;;;;;;3.90;1.30;;;;;;;;;;4958229;28;92884;-80
2023/05/03 05:10:01;;;;;;;2.70;1.00;;;;;;;;;;4962807;28;92774;-79
2023/05/03 05:12:29;;;;;;;2.10;1.08;;;;;;;;;;4945537;28;96644;-79
2023/05/03 05:14:56;;;;;;;3.25;1.23;;;;;;;;;;4947020;28;92740;-80
2023/05/03 05:17:25;;;;;;;3.85;1.30;;;;;;;;;;4947070;28;95281;-78
2023/05/03 05:19:53;;;;;;;2.55;1.20;;;;;;;;;;4936584;28;95885;-78
2023/05/03 05:22:19;;;;;;;2.83;1.20;;;;;;;;;;4946125;28;92395;-78
2023/05/03 05:24:52;;;;;;;2.67;1.20;;;;;;;;;;4949060;28;94946;-79
2023/05/03 05:27:21;;;;;;;2.47;1.10;;;;;;;;;;4945876;28;92515;-79
2023/05/03 05:29:51;;;;;;;2.42;1.05;;;;;;;;;;4947026;28;95346;-81
2023/05/03 05:32:18;;;;;;;2.33;1.15;;;;;;;;;;4946128;28;95905;-78
2023/05/03 05:34:51;;;;;;;2.95;1.40;;;;;;;;;;4946169;28;93773;-79
2023/05/03 05:37:19;;;;;;;2.90;1.08;;;;;;;;;;4935070;28;95291;-78
2023/05/03 05:39:46;;;;;;;2.67;1.20;;;;;;;;;;4958028;28;95920;-79
2023/05/03 05:42:15;;;;;;;2.38;1.10;;;;;;;;;;4946614;28;92695;-79
2023/05/03 05:44:41;;;;;;;2.72;1.20;;;;;;;;;;4966473;28;92663;-80
2023/05/03 05:47:08;;;;;;;3.80;1.20;;;;;;;;;;4966267;28;95808;-80
2023/05/03 05:49:35;;;;;;;3.45;1.10;;;;;;;;;;4957777;28;95085;-80
2023/05/03 05:52:03;;;;;;;3.75;1.20;;;;;;;;;;4967615;28;92996;-80
2023/05/03 05:54:30;;;;;;;2.28;1.00;;;;;;;;;;4965147;28;91834;-80
2023/05/03 05:56:58;;;;;;;;;;;;;;;;;;4964146;28;95548;-79
2023/05/03 05:59:24;;;;;;;6.55;1.30;;;;;;;;;;4947230;28;95388;-79
2023/05/03 06:01:51;;;;;;;3.28;1.10;;;;;;;;;;4945735;28;94995;-80
2023/05/03 06:04:19;;;;;;;2.85;0.95;;;;;;;;;;4945131;28;96828;-79
2023/05/03 06:06:46;;;;;;;2.55;1.05;;;;;;;;;;4945607;28;95698;-79
2023/05/03 06:09:13;;;;;;;2.28;1.10;;;;;;;;;;4951255;28;92412;-79
2023/05/03 06:11:52;;;;;;;3.08;0.93;;;;;;;;;;4948797;28;95919;-80
2023/05/03 06:14:19;;;;;;;3.47;1.05;;;;;;;;;;4949342;28;92711;-82
2023/05/03 06:16:46;;;;;;;;;;;;;;;;;;4962359;28;95384;-80
2023/05/03 06:19:13;;;;;;;5.38;1.20;;;;;;;;;;4955909;28;92271;-82
2023/05/03 06:21:39;;;;;;;2.65;1.00;;;;;;;;;;4967786;28;92835;-80
2023/05/03 06:24:06;;;;;;;3.28;1.10;;;;;;;;;;4967070;28;93020;-79
2023/05/03 06:26:33;;;;;;;2.92;1.23;;;;;;;;;;4963454;28;98756;-78
2023/05/03 06:29:01;;;;;;;3.25;1.10;;;;;;;;;;4965048;28;92587;-78
2023/05/03 06:31:28;;;;;;;4.07;1.30;;;;;;;;;;4954999;28;94769;-78
2023/05/03 06:33:56;;;;;;;3.17;1.30;;;;;;;;;;4964841;28;92634;-79
2023/05/03 06:36:23;;;;;;;4.38;1.50;;;;;;;;;;4967110;28;92662;-79
2023/05/03 06:38:49;;;;;;;4.75;1.30;;;;;;;;;;4956569;28;96059;-80
2023/05/03 06:41:16;;;;;;;5.97;1.40;;;;;;;;;;4947510;28;92841;-78
2023/05/03 06:43:42;;;;;;;6.35;1.40;;;;;;;;;;4931094;28;94907;-78
2023/05/03 06:46:11;;;;;;;5.13;1.40;;;;;;;;;;4947263;28;93085;-78
2023/05/03 06:48:38;;;;;;;5.57;1.38;;;;;;;;;;4929190;28;92992;-78
2023/05/03 06:51:05;;;;;;;4.00;1.30;;;;;;;;;;4945985;28;95229;-77
2023/05/03 06:53:31;;;;;;;6.00;1.30;;;;;;;;;;4949715;28;93482;-77
2023/05/03 06:55:58;;;;;;;4.28;1.23;;;;;;;;;;4948964;28;93479;-77
2023/05/03 06:58:26;;;;;;;2.55;1.00;;;;;;;;;;4950009;28;94072;-78
2023/05/03 07:00:52;;;;;;;3.55;1.20;;;;;;;;;;4947033;28;94499;-78
2023/05/03 07:03:19;;;;;;;3.63;1.13;;;;;;;;;;4950392;28;93206;-79
2023/05/03 07:05:47;;;;;;;5.07;1.20;;;;;;;;;;4953839;28;93521;-78
2023/05/03 07:08:13;;;;;;;4.28;1.30;;;;;;;;;;4952243;28;92186;-78
2023/05/03 07:10:40;;;;;;;3.63;1.33;;;;;;;;;;4948099;28;92458;-79
2023/05/03 07:13:07;;;;;;;5.22;1.63;;;;;;;;;;4949471;28;93141;-79
2023/05/03 07:15:33;;;;;;;3.67;1.50;;;;;;;;;;4953134;28;95160;-79
2023/05/03 07:18:00;;;;;;;3.22;1.35;;;;;;;;;;4953049;28;93602;-78
2023/05/03 07:20:27;;;;;;;4.88;1.40;;;;;;;;;;4947308;28;92901;-79
2023/05/03 07:22:53;;;;;;;5.53;1.35;;;;;;;;;;4955644;28;92805;-80
2023/05/03 07:25:20;;;;;;;4.70;1.33;;;;;;;;;;4950480;28;95982;-78
2023/05/03 07:27:46;;;;;;;2.72;1.17;;;;;;;;;;4948221;28;92797;-78
2023/05/03 07:30:13;;;;;;;3.53;1.10;;;;;;;;;;4942338;28;92927;-77
2023/05/03 07:32:39;;;;;;;5.93;1.42;;;;;;;;;;4948422;28;92178;-79
2023/05/03 07:35:06;;;;;;;4.63;1.35;;;;;;;;;;4950919;28;93131;-78
2023/05/03 07:37:33;;;;;;;3.05;1.33;;;;;;;;;;4949113;28;93276;-78
2023/05/03 07:39:59;;;;;;;5.25;1.40;;;;;;;;;;4945379;28;95702;-77
2023/05/03 07:42:26;;;;;;;6.93;1.40;;;;;;;;;;4947059;28;95674;-78
2023/05/03 07:44:54;;;;;;;4.95;1.25;;;;;;;;;;4940527;28;93779;-77
2023/05/03 07:47:21;;;;;;;3.45;1.38;;;;;;;;;;4954587;28;92768;-79
2023/05/03 07:49:49;;;;;;;4.78;1.30;;;;;;;;;;4963340;28;93249;-79
2023/05/03 07:52:16;;;;;;;2.90;1.20;;;;;;;;;;4967255;28;93304;-78
2023/05/03 07:54:44;;;;;;;9.70;1.70;;;;;;;;;;4933752;28;93178;-81
2023/05/03 07:57:12;;;;;;;5.85;1.20;;;;;;;;;;4969317;28;92956;-81
2023/05/03 07:59:39;;;;;;;1.95;1.13;;;;;;;;;;4955888;28;92864;-81
2023/05/03 08:02:06;;;;;;;6.13;1.45;;;;;;;;;;4958429;28;92738;-81
2023/05/03 08:04:33;;;;;;;3.60;1.23;;;;;;;;;;4958021;28;95634;-80
2023/05/03 08:07:01;;;;;;;3.85;1.38;;;;;;;;;;4958344;28;92437;-81
2023/05/03 08:09:28;;;;;;;5.32;1.40;;;;;;;;;;4965059;28;93079;-81
2023/05/03 08:11:55;;;;;;;3.75;1.10;;;;;;;;;;4968404;28;93942;-81
2023/05/03 08:14:22;;;;;;;3.85;1.10;;;;;;;;;;4955141;28;92747;-80
2023/05/03 08:16:49;;;;;;;3.45;0.82;;;;;;;;;;4962269;28;92910;-81
2023/05/03 08:19:15;;;;;;;7.15;1.02;;;;;;;;;;4953020;28;93033;-81
2023/05/03 08:21:42;;;;;;;3.83;1.02;;;;;;;;;;4950890;28;92466;-81
2023/05/03 08:24:09;;;;;;;3.22;1.00;;;;;;;;;;4947216;28;93067;-81
2023/05/03 08:26:36;;;;;;;9.25;1.48;;;;;;;;;;4949009;28;92823;-81
2023/05/03 08:29:03;;;;;;;7.13;1.10;;;;;;;;;;4948380;28;95818;-81
2023/05/03 08:31:30;;;;;;;4.97;1.17;;;;;;;;;;4949811;28;94273;-81
2023/05/03 08:33:56;;;;;;;2.55;1.10;;;;;;;;;;4949823;28;92431;-81
2023/05/03 08:36:23;;;;;;;5.45;1.08;;;;;;;;;;4949725;28;92713;-81
2023/05/03 08:38:49;;;;;;;5.53;1.25;;;;;;;;;;4949115;28;93193;-81
2023/05/03 08:41:27;;;;;;;3.45;1.00;;;;;;;;;;4951469;28;92557;-83
2023/05/03 08:43:56;;;;;;;5.88;1.33;;;;;;;;;;4949456;28;93937;-82
2023/05/03 08:46:26;;;;;;;2.35;0.98;;;;;;;;;;4950176;28;91809;-82
2023/05/03 08:48:53;;;;;;;4.53;1.10;;;;;;;;;;4949532;28;92754;-80
2023/05/03 08:51:20;;;;;;;;;;;;;;;;;;4943307;28;94112;-80
2023/05/03 08:53:47;;;;;;;3.20;1.00;;;;;;;;;;4930081;28;95437;-81
2023/05/03 08:56:31;;;;;;;3.38;1.10;;;;;;;;;;4948511;28;95893;-81
2023/05/03 08:59:06;;;;;;;4.13;1.20;;;;;;;;;;4983225;28;99075;-81
2023/05/03 09:01:34;;;;;;;3.80;1.00;;;;;;;;;;4967928;28;92455;-81
2023/05/03 09:04:00;;;;;;;4.82;1.20;;;;;;;;;;4966047;28;92986;-81
2023/05/03 09:06:27;;;;;;;3.70;1.35;;;;;;;;;;4964240;28;92608;-81
2023/05/03 09:08:54;;;;;;;3.25;1.02;;;;;;;;;;4962695;28;93026;-81
2023/05/03 09:11:28;;;;;;;3.15;1.00;;;;;;;;;;4967571;28;93531;-82
2023/05/03 09:14:08;;;;;;;2.30;0.95;;;;;;;;;;4954479;28;92904;-84
2023/05/03 09:16:35;;;;;;;4.22;1.00;;;;;;;;;;4948856;28;92950;-81
2023/05/03 09:19:03;;;;;;;1.88;0.90;;;;;;;;;;4960371;28;95419;-80
2023/05/03 09:21:33;;;;;;;3.20;1.00;;;;;;;;;;4953586;28;92419;-82
2023/05/03 09:24:00;;;;;;;3.53;0.93;;;;;;;;;;4950073;28;92781;-81
2023/05/03 09:26:27;;;;;;;2.72;0.80;;;;;;;;;;4965735;28;93140;-82
2023/05/03 09:28:55;;;;;;;3.75;0.98;;;;;;;;;;4962340;28;92687;-81
2023/05/03 09:31:22;;;;;;;2.28;0.75;;;;;;;;;;4948784;28;94153;-80
2023/05/03 09:33:48;;;;;;;1.80;0.75;;;;;;;;;;4957901;28;92505;-81
2023/05/03 09:36:15;;;;;;;2.97;0.88;;;;;;;;;;4942021;28;93579;-81
2023/05/03 09:38:42;;;;;;;2.85;0.80;;;;;;;;;;4941457;28;94288;-81
2023/05/03 09:41:09;;;;;;;4.45;1.10;;;;;;;;;;4967857;28;92881;-80
2023/05/03 09:43:46;;;;;;;2.08;0.80;;;;;;;;;;4966905;28;95232;-79
2023/05/03 09:46:13;;;;;;;2.50;0.80;;;;;;;;;;4969807;28;93130;-79
2023/05/03 09:48:40;;;;;;;2.42;0.90;;;;;;;;;;4961292;28;93215;-78
2023/05/03 09:51:07;;;;;;;;;;;;;;;;;;4964622;28;93059;-80
2023/05/03 09:53:35;;;;;;;1.33;0.63;;;;;;;;;;4966001;28;92860;-80
2023/05/03 09:56:02;;;;;;;1.77;0.75;;;;;;;;;;4965156;28;92756;-80
2023/05/03 09:58:29;;;;;;;2.35;0.90;;;;;;;;;;4964706;28;94326;-79
2023/05/03 10:00:56;;;;;;;2.53;0.80;;;;;;;;;;4959460;28;91767;-80
2023/05/03 10:03:27;;;;;;;2.00;0.82;;;;;;;;;;4945375;28;93502;-80
2023/05/03 10:05:54;;;;;;;1.08;0.70;;;;;;;;;;4948372;28;92943;-80
2023/05/03 10:08:32;;;;;;;2.00;0.80;;;;;;;;;;4963189;28;95513;-81
2023/05/03 10:11:00;;;;;;;1.40;0.70;;;;;;;;;;4953185;28;93131;-81
2023/05/03 10:13:28;;;;;;;2.45;0.80;;;;;;;;;;4949944;28;93386;-82
2023/05/03 10:15:57;;;;;;;2.50;0.82;;;;;;;;;;4966577;28;92483;-82
2023/05/03 10:18:26;;;;;;;2.97;0.90;;;;;;;;;;4966930;28;93843;-82
2023/05/03 10:20:56;;;;;;;2.78;0.90;;;;;;;;;;4969844;28;92815;-81
2023/05/03 10:23:22;;;;;;;3.83;1.00;;;;;;;;;;4948034;28;94204;-79
2023/05/03 10:26:04;;;;;;;2.33;0.90;;;;;;;;;;4948581;28;92225;-79
2023/05/03 10:28:34;;;;;;;2.47;0.80;;;;;;;;;;4958293;28;93083;-80
2023/05/03 10:31:01;;;;;;;2.55;0.90;;;;;;;;;;4947874;28;93109;-80
2023/05/03 10:33:27;;;;;;;3.47;0.90;;;;;;;;;;4960076;28;95638;-80
2023/05/03 10:35:54;;;;;;;4.35;0.90;;;;;;;;;;4946003;28;95632;-79
2023/05/03 10:38:21;;;;;;;7.13;0.98;;;;;;;;;;4943433;28;95752;-81
2023/05/03 10:40:48;;;;;;;2.45;0.73;;;;;;;;;;4947523;28;94054;-80
2023/05/03 10:43:44;;;;;;;3.95;0.90;;;;;;;;;;4946354;28;93110;-81
2023/05/03 10:46:29;;;;;;;2.47;0.85;;;;;;;;;;4939179;28;99750;-80
2023/05/03 10:49:16;;;;;;;3.10;0.85;;;;;;;;;;4950233;28;93064;-80
2023/05/03 10:51:44;;;;;;;;;;;;;;;;;;4952276;28;93138;-80
2023/05/03 10:54:11;;;;;;;1.67;0.77;;;;;;;;;;4952322;28;117105;-78
2023/05/03 10:56:47;;;;;;;2.90;0.80;;;;;;;;;;4947718;28;92790;-77
2023/05/03 10:59:13;;;;;;;5.22;0.82;;;;;;;;;;4944747;28;95566;-76
2023/05/03 11:01:41;;;;;;;2.67;0.90;;;;;;;;;;4947203;28;92847;-76
2023/05/03 11:04:19;;;;;;;2.67;0.90;;;;;;;;;;4950468;28;92770;-77
2023/05/03 11:06:49;;;;;;;4.25;1.00;;;;;;;;;;4961972;28;97395;-77
2023/05/03 11:09:17;;;;;;;1.67;0.75;;;;;;;;;;4964791;28;92527;-77
2023/05/03 11:11:43;;;;;;;2.33;0.70;;;;;;;;;;4956894;28;93200;-78
2023/05/03 11:14:12;;;;;;;3.05;0.85;;;;;;;;;;4947593;28;93632;-78
2023/05/03 11:16:46;;;;;;;3.50;0.85;;;;;;;;;;4964233;28;92007;-78
2023/05/03 11:19:13;;;;;;;2.17;0.80;;;;;;;;;;4956385;28;94056;-78
2023/05/03 11:21:43;;;;;;;2.20;0.80;;;;;;;;;;4965630;28;92759;-77
2023/05/03 11:24:11;;;;;;;4.65;1.05;;;;;;;;;;4963440;28;95190;-77
2023/05/03 11:26:38;;;;;;;1.88;1.00;;;;;;;;;;4967813;28;92836;-77
2023/05/03 11:29:04;;;;;;;1.75;0.75;;;;;;;;;;4951953;28;93160;-77
2023/05/03 11:31:31;;;;;;;1.80;0.70;;;;;;;;;;4954012;28;92856;-77
2023/05/03 11:33:58;;;;;;;2.22;0.77;;;;;;;;;;4958744;28;93210;-77
2023/05/03 11:36:25;;;;;;;1.85;0.90;;;;;;;;;;4964864;28;92540;-77
2023/05/03 11:38:52;;;;;;;2.75;1.00;;;;;;;;;;4970798;28;93946;-76
2023/05/03 11:41:18;;;;;;;2.15;0.80;;;;;;;;;;4961602;28;92195;-77
2023/05/03 11:43:46;;;;;;;2.85;0.90;;;;;;;;;;4958744;28;93088;-77
2023/05/03 11:46:22;;;;;;;2.67;0.80;;;;;;;;;;4967636;28;93298;-77
2023/05/03 11:48:48;;;;;;;1.52;0.75;;;;;;;;;;4966226;28;95443;-77
2023/05/03 11:51:20;;;;;;;1.85;0.70;;;;;;;;;;4963035;28;96125;-77
2023/05/03 11:53:47;;;;;;;2.05;0.80;;;;;;;;;;4941965;28;93322;-77
2023/05/03 11:56:19;;;;;;;1.75;0.68;;;;;;;;;;4944889;28;92503;-77
2023/05/03 11:58:54;;;;;;;0.90;0.70;;;;;;;;;;4986494;28;100003;-76
2023/05/03 12:01:22;;;;;;;2.45;0.88;;;;;;;;;;4961286;28;93133;-76
2023/05/03 12:03:53;;;;;;;1.80;0.80;;;;;;;;;;4954747;28;92948;-76
2023/05/03 12:06:20;;;;;;;1.50;0.70;;;;;;;;;;4969526;28;92743;-76
2023/05/03 12:08:48;;;;;;;1.58;0.70;;;;;;;;;;4965988;28;93623;-77
2023/05/03 12:11:15;;;;;;;1.23;0.80;;;;;;;;;;4958169;28;95169;-77
2023/05/03 12:13:44;;;;;;;3.28;1.20;;;;;;;;;;4948439;28;96158;-76
2023/05/03 12:16:13;;;;;;;2.65;0.80;;;;;;;;;;4932704;28;92476;-77
2023/05/03 12:19:02;;;;;;;1.65;0.90;;;;;;;;;;4948626;28;97599;-78
2023/05/03 12:21:45;;;;;;;1.25;0.70;;;;;;;;;;4952837;28;94111;-77
2023/05/03 12:24:32;;;;;;;1.52;0.80;;;;;;;;;;4946252;28;93512;-78
2023/05/03 12:27:00;;;;;;;2.63;0.90;;;;;;;;;;4947513;28;92717;-77
2023/05/03 12:29:30;;;;;;;3.97;0.82;;;;;;;;;;4947109;28;92814;-77
2023/05/03 12:32:01;;;;;;;2.05;0.77;;;;;;;;;;4950049;28;93085;-77
2023/05/03 12:34:29;;;;;;;2.58;0.95;;;;;;;;;;4942588;28;93323;-78
2023/05/03 12:37:03;;;;;;;1.42;0.80;;;;;;;;;;4954165;28;92755;-77
2023/05/03 12:39:32;;;;;;;1.83;0.80;;;;;;;;;;4941321;28;94985;-79
2023/05/03 12:42:02;;;;;;;2.53;0.80;;;;;;;;;;4949650;28;92977;-79
2023/05/03 12:44:31;;;;;;;2.35;0.68;;;;;;;;;;4950683;28;92993;-79
2023/05/03 12:47:00;;;;;;;1.75;0.60;;;;;;;;;;4948839;28;93003;-80
2023/05/03 12:49:27;;;;;;;2.88;0.80;;;;;;;;;;4949217;28;93301;-78
2023/05/03 12:51:59;;;;;;;2.00;0.82;;;;;;;;;;4947463;28;93078;-79
2023/05/03 12:54:45;;;;;;;1.92;0.80;;;;;;;;;;4946070;28;97885;-77
2023/05/03 12:57:15;;;;;;;1.95;0.82;;;;;;;;;;4948685;28;92284;-79
2023/05/03 12:59:51;;;;;;;2.72;0.80;;;;;;;;;;4944656;28;95312;-78
2023/05/03 13:02:20;;;;;;;1.65;0.82;;;;;;;;;;4947612;28;93681;-78
2023/05/03 13:04:54;;;;;;;2.78;0.90;;;;;;;;;;4945801;28;95329;-79
2023/05/03 13:07:29;;;;;;;3.22;0.95;;;;;;;;;;4951997;28;96004;-80
2023/05/03 13:10:01;;;;;;;2.53;0.70;;;;;;;;;;4948661;28;92788;-79
2023/05/03 13:12:32;;;;;;;1.77;0.80;;;;;;;;;;4930804;28;93875;-81
2023/05/03 13:15:01;;;;;;;3.90;0.90;;;;;;;;;;4947531;28;95444;-78
2023/05/03 13:17:29;;;;;;;2.00;0.80;;;;;;;;;;4948331;28;93913;-80
2023/05/03 13:19:56;;;;;;;2.92;0.80;;;;;;;;;;4947991;28;92530;-78
2023/05/03 13:22:23;;;;;;;2.35;0.90;;;;;;;;;;4948916;28;92059;-79
2023/05/03 13:24:49;;;;;;;1.90;0.88;;;;;;;;;;4947055;28;93021;-79
2023/05/03 13:27:16;;;;;;;3.15;0.80;;;;;;;;;;4947122;28;93087;-79
2023/05/03 13:29:43;;;;;;;2.83;0.90;;;;;;;;;;4939829;28;96869;-78
2023/05/03 13:32:13;;;;;;;2.95;0.90;;;;;;;;;;4948679;28;95008;-80
2023/05/03 13:34:40;;;;;;;1.63;0.85;;;;;;;;;;4945893;28;93238;-79
2023/05/03 13:37:06;;;;;;;2.22;0.90;;;;;;;;;;4947251;28;93086;-79
2023/05/03 13:39:33;;;;;;;1.67;0.80;;;;;;;;;;4946809;28;93023;-78
2023/05/03 13:41:59;;;;;;;2.03;1.02;;;;;;;;;;4945336;28;93145;-78
2023/05/03 13:44:26;;;;;;;1.40;0.80;;;;;;;;;;4929124;28;93716;-79
2023/05/03 13:46:53;;;;;;;3.88;0.90;;;;;;;;;;4946585;28;93128;-79
2023/05/03 13:49:19;;;;;;;2.78;0.90;;;;;;;;;;4946358;28;93844;-79
2023/05/03 13:51:46;;;;;;;2.83;0.90;;;;;;;;;;4949472;28;92481;-79
2023/05/03 13:54:13;;;;;;;1.90;0.90;;;;;;;;;;4944787;28;96449;-78
2023/05/03 13:56:41;;;;;;;2.97;1.00;;;;;;;;;;4944015;28;92809;-79
2023/05/03 13:59:10;;;;;;;1.80;0.80;;;;;;;;;;4946845;28;94074;-78
2023/05/03 14:01:37;;;;;;;2.35;0.80;;;;;;;;;;4945673;28;93080;-78
2023/05/03 14:04:04;;;;;;;1.65;0.75;;;;;;;;;;4948150;28;92492;-77
2023/05/03 14:06:31;;;;;;;2.55;0.90;;;;;;;;;;4946613;28;93084;-77
2023/05/03 14:09:00;;;;;;;3.03;0.90;;;;;;;;;;4947642;28;93316;-77
2023/05/03 14:11:28;;;;;;;1.48;0.80;;;;;;;;;;4950164;28;91672;-77
2023/05/03 14:13:55;;;;;;;2.22;1.00;;;;;;;;;;4944882;28;93585;-77
2023/05/03 14:16:25;;;;;;;1.52;0.80;;;;;;;;;;4946818;28;92900;-78
2023/05/03 14:18:54;;;;;;;1.13;0.80;;;;;;;;;;4946012;28;95445;-78
2023/05/03 14:21:21;;;;;;;;;;;;;;;;;;4947685;28;93093;-78
2023/05/03 14:23:51;;;;;;;1.05;0.88;;;;;;;;;;4949474;28;99629;-78
2023/05/03 14:26:20;;;;;;;3.40;1.00;;;;;;;;;;4948238;28;92922;-77
2023/05/03 14:28:47;;;;;;;1.67;0.93;;;;;;;;;;4935988;28;93037;-77
2023/05/03 14:31:14;;;;;;;1.92;0.80;;;;;;;;;;4947238;28;92778;-77
2023/05/03 14:33:40;;;;;;;2.45;1.08;;;;;;;;;;4950523;28;92699;-77
2023/05/03 14:36:08;;;;;;;1.73;0.82;;;;;;;;;;4948251;28;92005;-77
2023/05/03 14:38:34;;;;;;;2.42;0.98;;;;;;;;;;4946124;28;92504;-77
2023/05/03 14:41:01;;;;;;;2.15;0.88;;;;;;;;;;4947062;28;94057;-79
2023/05/03 14:43:28;;;;;;;1.08;0.90;;;;;;;;;;4941749;28;95554;-79
2023/05/03 14:45:54;;;;;;;1.95;0.90;;;;;;;;;;4966686;28;95112;-80
2023/05/03 14:48:22;;;;;;;2.80;0.90;;;;;;;;;;4966230;28;93104;-79
2023/05/03 14:50:50;;;;;;;1.83;0.80;;;;;;;;;;4964822;28;92846;-78
2023/05/03 14:53:16;;;;;;;1.25;0.90;;;;;;;;;;4965701;28;93224;-78